createdAt,value
2019-03-08T00:01:54.339Z,90.20
2019-03-08T00:04:22.500Z,90.20
2019-03-08T00:06:50.667Z,90.10
2019-03-08T00:09:18.844Z,90.20
2019-03-08T00:11:46.768Z,90.20
2019-03-08T00:14:15.065Z,90.20
2019-03-08T00:16:43.515Z,90.20
2019-03-08T00:19:11.719Z,90.10
2019-03-08T00:21:39.563Z,90.10
2019-03-08T00:24:07.680Z,90.10
2019-03-08T00:26:35.523Z,90.10
2019-03-08T00:29:03.720Z,90.10
2019-03-08T00:31:31.848Z,90.10
2019-03-08T00:34:00.075Z,90.20
2019-03-08T00:36:28.075Z,90.20
2019-03-08T00:38:56.207Z,90.20
2019-03-08T00:41:24.086Z,90.20
2019-03-08T00:43:52.347Z,90.20
2019-03-08T00:46:20.221Z,90.20
2019-03-08T00:48:48.067Z,90.10
2019-03-08T00:51:16.009Z,90.10
2019-03-08T00:53:43.928Z,90.10
2019-03-08T00:56:11.804Z,90.10
2019-03-08T00:58:39.730Z,90.10
2019-03-08T01:01:07.596Z,90.10
2019-03-08T01:03:35.616Z,90.20
2019-03-08T01:06:03.760Z,90.10
2019-03-08T01:08:31.603Z,90.00
2019-03-08T01:10:59.545Z,90.00
2019-03-08T01:13:27.474Z,90.10
2019-03-08T01:15:55.407Z,90.00
2019-03-08T01:18:23.251Z,90.00
2019-03-08T01:20:51.128Z,90.00
2019-03-08T01:23:19.040Z,90.00
2019-03-08T01:25:46.924Z,89.90
2019-03-08T01:28:14.904Z,89.80
2019-03-08T01:30:42.992Z,89.70
2019-03-08T01:33:11.059Z,89.60
2019-03-08T01:35:39.066Z,89.60
2019-03-08T01:38:06.989Z,89.60
2019-03-08T01:40:34.835Z,89.60
2019-03-08T01:43:02.691Z,89.60
2019-03-08T01:45:30.536Z,89.50
2019-03-08T01:47:59.019Z,89.50
2019-03-08T01:50:27.142Z,89.40
2019-03-08T01:52:55.452Z,89.30
2019-03-08T01:55:23.640Z,89.00
2019-03-08T01:57:51.836Z,89.20
2019-03-08T02:00:19.988Z,89.00
2019-03-08T02:02:48.163Z,88.90
2019-03-08T02:05:16.383Z,88.80
2019-03-08T02:07:44.612Z,89.70
2019-03-08T02:10:12.839Z,88.80
2019-03-08T02:12:42.093Z,88.60
2019-03-08T02:15:11.367Z,88.70
2019-03-08T02:17:39.219Z,88.60
2019-03-08T02:20:08.244Z,88.70
2019-03-08T02:22:36.094Z,88.50
2019-03-08T02:25:04.139Z,88.70
2019-03-08T02:27:31.983Z,88.40
2019-03-08T02:29:59.823Z,88.10
2019-03-08T02:32:27.707Z,88.10
2019-03-08T02:34:55.626Z,87.90
2019-03-08T02:37:23.833Z,88.10
2019-03-08T02:39:51.751Z,88.00
2019-03-08T02:42:19.620Z,88.10
2019-03-08T02:44:47.531Z,87.90
2019-03-08T02:47:15.403Z,87.90
2019-03-08T02:49:43.244Z,87.80
2019-03-08T02:52:11.115Z,87.90
2019-03-08T02:54:38.959Z,87.80
2019-03-08T02:57:07.259Z,87.80
2019-03-08T02:59:35.456Z,87.80
2019-03-08T03:02:03.331Z,87.80
2019-03-08T03:04:31.172Z,87.70
2019-03-08T03:06:59.545Z,87.70
2019-03-08T03:09:27.391Z,87.70
2019-03-08T03:11:55.611Z,87.60
2019-03-08T03:14:23.835Z,87.70
2019-03-08T03:16:51.708Z,87.80
2019-03-08T03:19:19.550Z,87.80
2019-03-08T03:21:47.791Z,87.80
2019-03-08T03:24:15.961Z,87.50
2019-03-08T03:26:43.903Z,87.50
2019-03-08T03:29:12.080Z,87.50
2019-03-08T03:31:39.928Z,87.50
2019-03-08T03:34:08.303Z,87.40
2019-03-08T03:36:36.803Z,87.60
2019-03-08T03:39:06.169Z,87.40
2019-03-08T03:41:34.090Z,87.60
2019-03-08T03:44:03.572Z,87.50
2019-03-08T03:46:31.522Z,87.60
2019-03-08T03:48:59.741Z,87.50
2019-03-08T03:51:28.309Z,87.50
2019-03-08T03:53:56.224Z,87.50
2019-03-08T03:56:24.099Z,87.60
2019-03-08T03:58:51.940Z,87.50
2019-03-08T04:01:30.111Z,87.50
2019-03-08T04:03:57.956Z,87.40
2019-03-08T04:06:26.152Z,87.40
2019-03-08T04:08:54.347Z,87.50
2019-03-08T04:11:22.219Z,87.50
2019-03-08T04:13:50.064Z,87.40
2019-03-08T04:16:17.945Z,87.40
2019-03-08T04:18:45.859Z,87.50
2019-03-08T04:21:14.164Z,87.50
2019-03-08T04:23:42.083Z,87.30
2019-03-08T04:26:10.340Z,87.30
2019-03-08T04:28:38.187Z,87.20
2019-03-08T04:31:06.352Z,87.20
2019-03-08T04:33:34.195Z,87.20
2019-03-08T04:36:03.000Z,87.20
2019-03-08T04:38:30.925Z,87.20
2019-03-08T04:40:58.799Z,87.40
2019-03-08T04:43:26.644Z,87.10
2019-03-08T04:45:54.771Z,87.30
2019-03-08T04:48:22.949Z,87.00
2019-03-08T04:50:51.121Z,86.90
2019-03-08T04:53:19.394Z,87.00
2019-03-08T04:55:47.340Z,87.10
2019-03-08T04:58:15.391Z,87.00
2019-03-08T05:00:43.240Z,86.90
2019-03-08T05:03:11.383Z,86.90
2019-03-08T05:05:39.378Z,86.90
2019-03-08T05:08:07.400Z,87.00
2019-03-08T05:10:35.691Z,87.00
2019-03-08T05:13:03.599Z,87.00
2019-03-08T05:15:31.447Z,87.00
2019-03-08T05:17:59.315Z,86.90
2019-03-08T05:20:27.160Z,86.90
2019-03-08T05:22:56.452Z,86.80
2019-03-08T05:25:24.703Z,86.90
2019-03-08T05:27:52.928Z,86.80
2019-03-08T05:30:21.076Z,86.80
2019-03-08T05:32:48.959Z,86.80
2019-03-08T05:35:16.824Z,86.80
2019-03-08T05:37:46.621Z,86.60
2019-03-08T05:40:14.703Z,86.70
2019-03-08T05:42:42.576Z,86.90
2019-03-08T05:45:10.729Z,87.00
2019-03-08T05:47:38.596Z,86.90
2019-03-08T05:50:06.775Z,86.90
2019-03-08T05:52:35.046Z,87.00
2019-03-08T05:55:03.172Z,87.10
2019-03-08T05:57:31.393Z,87.70
2019-03-08T05:59:59.231Z,87.20
2019-03-08T06:02:27.181Z,86.90
2019-03-08T06:04:55.400Z,87.10
2019-03-08T06:07:23.391Z,87.20
2019-03-08T06:09:51.615Z,87.20
2019-03-08T06:12:19.861Z,87.20
2019-03-08T06:14:47.780Z,87.20
2019-03-08T06:17:15.651Z,87.00
2019-03-08T06:19:43.495Z,86.80
2019-03-08T06:22:11.344Z,86.70
2019-03-08T06:24:39.187Z,86.80
2019-03-08T06:27:07.628Z,86.70
2019-03-08T06:29:35.903Z,86.90
2019-03-08T06:32:03.867Z,87.40
2019-03-08T06:34:32.922Z,87.70
2019-03-08T06:37:00.879Z,88.60
2019-03-08T06:39:28.727Z,88.20
2019-03-08T06:41:56.651Z,88.70
2019-03-08T06:44:25.152Z,88.20
2019-03-08T06:46:53.444Z,88.10
2019-03-08T06:49:21.291Z,88.00
2019-03-08T06:51:49.139Z,87.70
2019-03-08T06:54:16.988Z,87.40
2019-03-08T06:56:44.839Z,87.20
2019-03-08T06:59:18.037Z,86.50
2019-03-08T07:01:46.171Z,87.00
2019-03-08T07:04:14.019Z,87.00
2019-03-08T07:06:41.939Z,87.00
2019-03-08T07:09:09.802Z,86.80
2019-03-08T07:11:37.707Z,86.70
2019-03-08T07:14:05.947Z,86.50
2019-03-08T07:16:34.090Z,87.30
2019-03-08T07:19:01.931Z,86.40
2019-03-08T07:21:47.767Z,86.20
2019-03-08T07:24:34.338Z,86.30
2019-03-08T07:27:20.316Z,85.80
2019-03-08T07:30:06.622Z,85.80
2019-03-08T07:33:03.039Z,85.60
2019-03-08T07:35:50.393Z,85.80
2019-03-08T07:38:43.567Z,85.50
2019-03-08T07:41:36.507Z,85.80
2019-03-08T07:44:29.555Z,85.40
2019-03-08T07:47:16.056Z,85.50
2019-03-08T07:49:58.655Z,85.60
2019-03-08T07:52:41.491Z,86.00
2019-03-08T07:55:31.612Z,85.80
2019-03-08T07:58:21.752Z,85.60
2019-03-08T08:01:04.158Z,85.50
2019-03-08T08:03:54.260Z,85.30
2019-03-08T08:06:53.651Z,85.30
2019-03-08T08:09:46.723Z,85.30
2019-03-08T08:12:43.103Z,85.30
2019-03-08T08:15:28.764Z,85.20
2019-03-08T08:18:18.631Z,85.10
2019-03-08T08:21:09.303Z,85.00
2019-03-08T08:23:55.284Z,84.80
2019-03-08T08:26:29.695Z,84.60
2019-03-08T08:29:16.748Z,84.50
2019-03-08T08:32:06.996Z,84.50
2019-03-08T08:34:58.951Z,84.40
2019-03-08T08:37:38.311Z,84.30
2019-03-08T08:40:14.760Z,84.20
2019-03-08T08:43:07.827Z,84.10
2019-03-08T08:45:54.885Z,84.10
2019-03-08T08:48:41.935Z,84.00
2019-03-08T08:51:32.000Z,84.10
2019-03-08T08:54:18.996Z,84.10
2019-03-08T08:57:05.963Z,84.10
2019-03-08T08:59:48.308Z,84.00
2019-03-08T09:02:25.875Z,84.30
2019-03-08T09:05:13.247Z,84.40
2019-03-08T09:08:03.500Z,84.40
2019-03-08T09:10:50.553Z,84.20
2019-03-08T09:13:52.904Z,84.00
2019-03-08T09:16:46.184Z,83.90
2019-03-08T09:19:24.668Z,83.90
2019-03-08T09:22:26.962Z,83.70
2019-03-08T09:25:22.806Z,83.70
2019-03-08T09:28:10.003Z,83.60
2019-03-08T09:30:43.720Z,83.50
2019-03-08T09:33:23.828Z,83.40
2019-03-08T09:36:05.219Z,83.20
2019-03-08T09:39:01.282Z,83.50
2019-03-08T09:41:44.960Z,83.30
2019-03-08T09:44:35.016Z,83.90
2019-03-08T09:47:14.401Z,82.90
2019-03-08T09:50:00.139Z,82.90
2019-03-08T09:52:34.175Z,82.80
2019-03-08T09:55:06.887Z,82.70
2019-03-08T09:57:57.123Z,82.60
2019-03-08T10:00:44.094Z,82.60
2019-03-08T10:03:30.280Z,82.60
2019-03-08T10:06:03.999Z,82.60
2019-03-08T10:08:53.844Z,82.60
2019-03-08T10:11:39.268Z,82.90
2019-03-08T10:14:31.172Z,83.40
2019-03-08T10:17:17.471Z,83.10
2019-03-08T10:19:54.246Z,83.10
2019-03-08T10:22:44.388Z,83.00
2019-03-08T10:25:22.363Z,82.90
2019-03-08T10:28:12.117Z,83.10
2019-03-08T10:31:02.566Z,83.20
2019-03-08T10:33:58.820Z,82.90
2019-03-08T10:36:45.798Z,82.90
2019-03-08T10:39:20.780Z,82.70
2019-03-08T10:42:10.544Z,82.60
2019-03-08T10:44:57.521Z,82.50
2019-03-08T10:47:37.531Z,82.50
2019-03-08T10:50:12.980Z,82.50
2019-03-08T10:52:45.250Z,82.50
2019-03-08T10:55:41.699Z,82.50
2019-03-08T10:58:37.789Z,82.50
2019-03-08T11:01:14.588Z,82.50
2019-03-08T11:04:01.888Z,82.50
2019-03-08T11:06:52.288Z,82.70
2019-03-08T11:09:48.331Z,82.80
2019-03-08T11:12:35.296Z,82.70
2019-03-08T11:15:31.457Z,82.60
2019-03-08T11:18:21.744Z,82.70
2019-03-08T11:21:02.431Z,82.60
2019-03-08T11:23:49.404Z,82.80
2019-03-08T11:26:23.551Z,82.70
2019-03-08T11:29:12.519Z,82.50
2019-03-08T11:31:59.490Z,82.50
2019-03-08T11:34:51.921Z,82.60
2019-03-08T11:37:32.921Z,82.70
2019-03-08T11:40:23.575Z,82.90
2019-03-08T11:43:01.468Z,82.20
2019-03-08T11:45:51.435Z,83.00
2019-03-08T11:48:41.896Z,83.00
2019-03-08T11:51:37.136Z,83.00
2019-03-08T11:54:29.611Z,83.10
2019-03-08T11:57:23.437Z,83.00
2019-03-08T12:00:07.523Z,82.90
2019-03-08T12:02:53.191Z,82.90
2019-03-08T12:05:46.316Z,82.80
2019-03-08T12:08:23.755Z,82.70
2019-03-08T12:11:25.291Z,82.70
2019-03-08T12:14:27.971Z,82.60
2019-03-08T12:17:03.603Z,82.60
2019-03-08T12:20:06.171Z,82.70
2019-03-08T12:22:53.011Z,82.70
2019-03-08T12:25:40.820Z,82.50
2019-03-08T12:28:19.860Z,82.40
2019-03-08T12:31:06.072Z,82.50
2019-03-08T12:33:59.439Z,82.40
2019-03-08T12:36:46.416Z,82.40
2019-03-08T12:39:22.815Z,82.40
2019-03-08T12:42:09.945Z,82.50
2019-03-08T12:44:55.947Z,82.40
2019-03-08T12:47:43.232Z,82.60
2019-03-08T12:50:17.295Z,83.20
2019-03-08T12:53:10.722Z,84.00
2019-03-08T12:55:45.752Z,84.30
2019-03-08T12:58:24.879Z,84.20
2019-03-08T13:00:58.891Z,84.10
2019-03-08T13:03:34.579Z,83.80
2019-03-08T13:06:09.267Z,83.60
2019-03-08T13:08:48.522Z,83.40
2019-03-08T13:11:16.739Z,83.30
2019-03-08T13:13:44.745Z,83.10
2019-03-08T13:16:12.860Z,83.20
2019-03-08T13:18:41.079Z,83.10
2019-03-08T13:21:08.923Z,82.60
2019-03-08T13:23:36.832Z,82.70
2019-03-08T13:26:04.703Z,83.10
2019-03-08T13:28:32.567Z,83.00
2019-03-08T13:31:00.684Z,83.10
2019-03-08T13:33:28.588Z,83.10
2019-03-08T13:35:56.772Z,83.20
2019-03-08T13:38:24.639Z,83.20
2019-03-08T13:40:52.479Z,83.30
2019-03-08T13:43:20.420Z,83.40
2019-03-08T13:45:48.259Z,83.40
2019-03-08T13:48:16.131Z,83.30
2019-03-08T13:50:44.055Z,83.40
2019-03-08T13:53:12.271Z,83.30
2019-03-08T13:55:40.157Z,83.30
2019-03-08T13:58:08.367Z,83.30
2019-03-08T14:00:36.521Z,83.30
2019-03-08T14:03:04.659Z,83.30
2019-03-08T14:05:32.506Z,83.20
2019-03-08T14:08:00.380Z,84.00
2019-03-08T14:10:28.520Z,83.20
2019-03-08T14:12:56.420Z,83.20
2019-03-08T14:15:24.269Z,83.20
2019-03-08T14:17:53.243Z,83.10
2019-03-08T14:20:21.445Z,83.20
2019-03-08T14:22:49.451Z,83.20
2019-03-08T14:25:17.371Z,83.20
2019-03-08T14:27:45.215Z,83.20
2019-03-08T14:30:14.245Z,83.20
2019-03-08T14:32:42.550Z,83.20
2019-03-08T14:35:10.491Z,83.20
2019-03-08T14:37:38.336Z,83.00
2019-03-08T14:40:13.635Z,82.90
2019-03-08T14:42:57.028Z,82.70
2019-03-08T14:45:40.575Z,83.10
2019-03-08T14:48:09.465Z,83.10
2019-03-08T14:50:38.920Z,83.20
2019-03-08T14:53:06.767Z,83.10
2019-03-08T14:55:34.635Z,83.20
2019-03-08T14:58:02.482Z,83.30
2019-03-08T15:00:30.721Z,83.40
2019-03-08T15:02:58.972Z,83.30
2019-03-08T15:05:27.455Z,83.30
2019-03-08T15:07:55.782Z,83.40
2019-03-08T15:10:24.003Z,83.30
2019-03-08T15:12:53.162Z,83.40
2019-03-08T15:15:21.268Z,83.40
2019-03-08T15:17:49.631Z,83.50
2019-03-08T15:20:18.727Z,83.40
2019-03-08T15:22:47.030Z,83.30
2019-03-08T15:25:14.922Z,83.30
2019-03-08T15:27:43.166Z,83.50
2019-03-08T15:30:12.463Z,83.30
2019-03-08T15:32:40.313Z,83.50
2019-03-08T15:35:09.224Z,83.20
2019-03-08T15:37:43.911Z,83.10
2019-03-08T15:40:07.981Z,83.00
2019-03-08T15:42:36.852Z,83.60
2019-03-08T15:45:07.028Z,83.60
2019-03-08T15:47:36.232Z,83.50
2019-03-08T15:50:08.270Z,83.80
2019-03-08T15:52:34.919Z,83.50
2019-03-08T15:55:03.128Z,81.60
2019-03-08T15:57:30.999Z,82.50
2019-03-08T15:59:59.012Z,82.60
2019-03-08T16:02:26.883Z,82.00
2019-03-08T16:04:55.093Z,82.50
2019-03-08T16:07:23.226Z,82.00
2019-03-08T16:09:52.344Z,81.50
2019-03-08T16:12:20.195Z,81.50
2019-03-08T16:14:48.055Z,81.50
2019-03-08T16:17:16.175Z,82.40
2019-03-08T16:19:44.448Z,81.90
2019-03-08T16:22:12.604Z,82.00
2019-03-08T16:24:40.443Z,82.10
2019-03-08T16:27:08.287Z,82.20
2019-03-08T16:29:36.136Z,82.40
2019-03-08T16:32:15.853Z,82.20
2019-03-08T16:34:43.680Z,82.10
2019-03-08T16:37:30.631Z,82.20
2019-03-08T16:40:09.153Z,82.70
2019-03-08T16:43:09.036Z,82.50
2019-03-08T16:46:08.839Z,82.20
2019-03-08T16:48:44.126Z,82.10
2019-03-08T16:51:30.385Z,82.40
2019-03-08T16:54:02.212Z,82.20
2019-03-08T16:56:52.300Z,82.60
2019-03-08T16:59:39.271Z,82.50
2019-03-08T17:02:52.599Z,81.00
2019-03-08T17:05:37.057Z,81.30
2019-03-08T17:08:20.196Z,81.30
2019-03-08T17:11:07.523Z,81.30
2019-03-08T17:13:53.616Z,81.70
2019-03-08T17:16:32.111Z,80.90
2019-03-08T17:19:18.934Z,81.00
2019-03-08T17:22:09.639Z,81.60
2019-03-08T17:25:14.844Z,81.70
2019-03-08T17:28:14.043Z,81.70
2019-03-08T17:31:04.151Z,81.80
2019-03-08T17:33:41.261Z,81.90
2019-03-08T17:36:27.187Z,81.80
2019-03-08T17:39:14.445Z,81.80
2019-03-08T17:42:01.419Z,81.80
2019-03-08T17:44:57.516Z,81.80
2019-03-08T17:47:44.495Z,81.80
2019-03-08T17:50:37.343Z,81.40
2019-03-08T17:53:22.925Z,81.70
2019-03-08T17:56:13.228Z,81.60
2019-03-08T17:58:56.985Z,81.30
2019-03-08T18:01:47.668Z,81.30
2019-03-08T18:04:37.748Z,81.50
2019-03-08T18:07:33.941Z,81.40
2019-03-08T18:10:23.749Z,81.70
2019-03-08T18:13:10.739Z,80.70
2019-03-08T18:15:56.676Z,80.90
2019-03-08T18:18:42.992Z,79.40
2019-03-08T18:21:27.728Z,80.60
2019-03-08T18:24:20.510Z,79.10
2019-03-08T18:26:59.235Z,78.30
2019-03-08T18:29:43.493Z,79.20
2019-03-08T18:32:24.291Z,79.70
2019-03-08T18:35:29.715Z,79.70
2019-03-08T18:38:06.565Z,79.90
2019-03-08T18:40:49.360Z,79.90
2019-03-08T18:43:36.596Z,80.00
2019-03-08T18:46:19.413Z,80.00
2019-03-08T18:48:54.964Z,80.00
2019-03-08T18:51:29.583Z,80.10
2019-03-08T18:54:19.400Z,80.00
2019-03-08T18:56:58.417Z,80.00
2019-03-08T18:59:49.192Z,80.10
2019-03-08T19:02:44.716Z,80.10
2019-03-08T19:05:27.734Z,80.10
2019-03-08T19:08:01.832Z,80.10
2019-03-08T19:10:58.170Z,80.10
2019-03-08T19:13:44.279Z,80.30
2019-03-08T19:16:29.906Z,80.20
2019-03-08T19:19:16.964Z,80.20
2019-03-08T19:21:57.436Z,80.20
2019-03-08T19:24:33.791Z,80.30
2019-03-08T19:27:39.167Z,80.30
2019-03-08T19:30:28.120Z,80.30
2019-03-08T19:33:08.279Z,80.30
2019-03-08T19:36:10.611Z,80.40
2019-03-08T19:39:03.676Z,80.40
2019-03-08T19:41:57.775Z,80.30
2019-03-08T19:44:33.408Z,80.40
2019-03-08T19:47:09.780Z,80.40
2019-03-08T19:50:05.688Z,80.50
2019-03-08T19:52:44.618Z,80.30
2019-03-08T19:55:16.386Z,80.30
2019-03-08T19:58:12.439Z,80.40
2019-03-08T20:00:52.877Z,80.50
2019-03-08T20:03:51.992Z,80.40
2019-03-08T20:06:54.639Z,80.40
2019-03-08T20:09:37.783Z,80.30
2019-03-08T20:12:21.007Z,80.20
2019-03-08T20:15:06.931Z,80.30
2019-03-08T20:17:44.595Z,81.10
2019-03-08T20:20:22.191Z,80.20
2019-03-08T20:23:08.119Z,80.10
2019-03-08T20:25:54.115Z,80.20
2019-03-08T20:28:44.056Z,80.10
2019-03-08T20:31:36.275Z,81.00
2019-03-08T20:34:11.028Z,80.10
2019-03-08T20:36:59.993Z,80.10
2019-03-08T20:39:46.565Z,80.20
2019-03-08T20:42:22.743Z,80.20
2019-03-08T20:45:12.779Z,80.20
2019-03-08T20:47:40.615Z,80.40
2019-03-08T20:50:09.776Z,80.40
2019-03-08T20:52:37.951Z,80.30
2019-03-08T20:55:06.064Z,80.40
2019-03-08T20:57:34.307Z,80.30
2019-03-08T21:00:02.157Z,80.30
2019-03-08T21:02:30.561Z,80.40
2019-03-08T21:04:58.408Z,80.20
2019-03-08T21:07:26.257Z,80.20
2019-03-08T21:09:54.179Z,80.20
2019-03-08T21:12:22.019Z,80.10
2019-03-08T21:14:52.019Z,80.00
2019-03-08T21:17:20.423Z,80.00
2019-03-08T21:19:48.360Z,80.00
2019-03-08T21:22:16.199Z,80.00
2019-03-08T21:24:44.066Z,79.90
2019-03-08T21:27:11.907Z,79.80
2019-03-08T21:29:39.779Z,80.40
2019-03-08T21:32:07.663Z,79.80
2019-03-08T21:34:35.604Z,79.80
2019-03-08T21:37:03.451Z,79.70
2019-03-08T21:39:31.329Z,79.70
2019-03-08T21:41:59.176Z,79.80
2019-03-08T21:44:27.059Z,79.60
2019-03-08T21:46:54.912Z,79.50
2019-03-08T21:49:22.772Z,79.60
2019-03-08T21:51:50.936Z,79.50
2019-03-08T21:54:18.784Z,79.50
2019-03-08T21:56:47.004Z,79.50
2019-03-08T21:59:15.220Z,79.50
2019-03-08T22:01:43.064Z,79.40
2019-03-08T22:04:36.334Z,79.70
2019-03-08T22:07:04.964Z,79.30
2019-03-08T22:09:42.196Z,79.30
2019-03-08T22:12:10.150Z,79.40
2019-03-08T22:14:37.991Z,79.30
2019-03-08T22:17:05.887Z,79.30
2019-03-08T22:19:34.388Z,79.30
2019-03-08T22:22:02.863Z,79.30
2019-03-08T22:24:30.712Z,79.30
2019-03-08T22:26:58.559Z,79.30
2019-03-08T22:29:26.405Z,79.20
2019-03-08T22:31:54.259Z,79.20
2019-03-08T22:34:22.455Z,79.10
2019-03-08T22:36:50.379Z,79.30
2019-03-08T22:39:18.543Z,79.20
2019-03-08T22:41:46.475Z,79.20
2019-03-08T22:44:14.648Z,79.00
2019-03-08T22:46:45.494Z,79.00
2019-03-08T22:49:12.715Z,78.90
2019-03-08T22:51:40.612Z,78.80
2019-03-08T22:54:08.758Z,78.70
2019-03-08T22:56:36.623Z,78.70
2019-03-08T22:59:04.468Z,78.80
2019-03-08T23:02:00.687Z,78.80
2019-03-08T23:04:28.600Z,78.80
2019-03-08T23:06:56.499Z,79.50
2019-03-08T23:09:24.344Z,78.70
2019-03-08T23:11:52.681Z,78.70
2019-03-08T23:14:20.528Z,78.70
2019-03-08T23:16:48.731Z,78.70
2019-03-08T23:19:16.579Z,78.70
2019-03-08T23:21:44.443Z,78.60
2019-03-08T23:24:12.290Z,78.60
2019-03-08T23:26:49.239Z,78.60
2019-03-08T23:29:24.055Z,78.40
2019-03-08T23:32:05.290Z,78.40
2019-03-08T23:34:33.399Z,78.40
2019-03-08T23:37:01.271Z,78.40
2019-03-08T23:39:29.119Z,78.40
2019-03-08T23:41:56.988Z,78.20
2019-03-08T23:44:24.903Z,78.20
2019-03-08T23:46:53.031Z,78.20
2019-03-08T23:49:21.203Z,78.10
2019-03-08T23:51:49.087Z,78.30
2019-03-08T23:54:17.656Z,78.70
2019-03-08T23:56:45.955Z,79.30
2019-03-08T23:59:14.184Z,79.40
